createdAt,value
2018-07-01T00:00:21.569Z,17.87
2018-07-01T00:02:50.649Z,17.91
2018-07-01T00:05:19.810Z,17.95
2018-07-01T00:07:49.542Z,18.02
2018-07-01T00:10:18.716Z,17.99
2018-07-01T00:12:47.893Z,18.02
2018-07-01T00:15:18.009Z,17.98
2018-07-01T00:17:47.104Z,17.97
2018-07-01T00:20:16.252Z,17.96
2018-07-01T00:22:45.441Z,18.00
2018-07-01T00:25:14.681Z,18.01
2018-07-01T00:27:43.770Z,18.01
2018-07-01T00:30:13.120Z,18.00
2018-07-01T00:32:42.234Z,17.94
2018-07-01T00:35:11.358Z,17.87
2018-07-01T00:37:40.460Z,17.78
2018-07-01T00:40:09.966Z,17.74
2018-07-01T00:42:39.056Z,17.71
2018-07-01T00:45:08.148Z,17.66
2018-07-01T00:47:37.302Z,17.59
2018-07-01T00:50:06.420Z,17.57
2018-07-01T00:52:35.542Z,17.46
2018-07-01T00:55:04.604Z,17.31
2018-07-01T00:57:35.639Z,17.32
2018-07-01T01:00:05.018Z,17.26
2018-07-01T01:02:34.134Z,17.25
2018-07-01T01:05:03.276Z,17.18
2018-07-01T01:07:32.845Z,17.16
2018-07-01T01:10:01.981Z,17.08
2018-07-01T01:12:31.591Z,17.05
2018-07-01T01:15:00.892Z,17.05
2018-07-01T01:17:31.120Z,16.95
2018-07-01T01:20:00.265Z,17.00
2018-07-01T01:22:29.525Z,16.89
2018-07-01T01:24:58.789Z,16.85
2018-07-01T01:27:27.896Z,16.83
2018-07-01T01:29:57.309Z,16.84
2018-07-01T01:32:26.485Z,16.80
2018-07-01T01:34:55.704Z,16.76
2018-07-01T01:37:25.689Z,16.67
2018-07-01T01:39:54.844Z,16.65
2018-07-01T01:42:28.088Z,16.64
2018-07-01T01:45:00.344Z,16.55
2018-07-01T01:47:42.766Z,16.47
2018-07-01T01:50:16.902Z,16.36
2018-07-01T01:52:52.558Z,16.33
2018-07-01T01:55:33.153Z,16.22
2018-07-01T01:58:10.309Z,16.11
2018-07-01T02:00:44.368Z,16.17
2018-07-01T02:03:31.436Z,16.01
2018-07-01T02:06:08.033Z,16.01
2018-07-01T02:08:42.226Z,15.93
2018-07-01T02:11:11.291Z,15.85
2018-07-01T02:13:42.977Z,15.78
2018-07-01T02:16:15.645Z,15.68
2018-07-01T02:18:44.768Z,15.62
2018-07-01T02:21:13.948Z,15.57
2018-07-01T02:23:48.685Z,15.52
2018-07-01T02:26:18.082Z,15.44
2018-07-01T02:28:47.277Z,15.34
2018-07-01T02:31:16.483Z,15.27
2018-07-01T02:33:45.576Z,15.23
2018-07-01T02:36:14.657Z,15.16
2018-07-01T02:38:44.081Z,15.10
2018-07-01T02:41:13.221Z,15.06
2018-07-01T02:43:42.341Z,15.00
2018-07-01T02:46:11.584Z,14.95
2018-07-01T02:48:40.710Z,14.90
2018-07-01T02:51:09.894Z,14.86
2018-07-01T02:53:39.172Z,14.86
2018-07-01T02:56:08.253Z,14.88
2018-07-01T02:58:38.175Z,14.76
2018-07-01T03:01:07.457Z,14.69
2018-07-01T03:03:36.516Z,14.64
2018-07-01T03:06:05.685Z,14.59
2018-07-01T03:08:34.825Z,14.55
2018-07-01T03:11:04.085Z,14.48
2018-07-01T03:13:33.330Z,14.43
2018-07-01T03:16:02.453Z,14.36
2018-07-01T03:18:32.448Z,14.32
2018-07-01T03:21:01.902Z,14.23
2018-07-01T03:23:31.323Z,14.14
2018-07-01T03:26:00.448Z,14.08
2018-07-01T03:28:29.584Z,14.07
2018-07-01T03:30:58.713Z,14.03
2018-07-01T03:33:27.925Z,14.03
2018-07-01T03:35:57.373Z,14.02
2018-07-01T03:38:27.404Z,13.94
2018-07-01T03:40:56.476Z,13.95
2018-07-01T03:43:25.732Z,13.92
2018-07-01T03:45:54.852Z,13.86
2018-07-01T03:48:24.152Z,13.78
2018-07-01T03:50:53.529Z,13.78
2018-07-01T03:53:22.693Z,13.82
2018-07-01T03:55:51.833Z,13.83
2018-07-01T03:58:21.257Z,13.83
2018-07-01T04:00:50.540Z,13.88
2018-07-01T04:03:19.740Z,13.93
2018-07-01T04:05:49.437Z,13.98
2018-07-01T04:08:18.537Z,14.01
2018-07-01T04:10:47.740Z,14.04
2018-07-01T04:13:17.148Z,14.10
2018-07-01T04:15:46.285Z,14.11
2018-07-01T04:18:15.388Z,14.13
2018-07-01T04:20:44.762Z,14.14
2018-07-01T04:23:13.884Z,14.20
2018-07-01T04:25:43.031Z,14.25
2018-07-01T04:28:12.169Z,14.33
2018-07-01T04:30:41.346Z,14.41
2018-07-01T04:33:10.417Z,14.51
2018-07-01T04:35:39.789Z,14.47
2018-07-01T04:38:09.146Z,14.62
2018-07-01T04:40:38.264Z,14.75
2018-07-01T04:43:07.422Z,14.89
2018-07-01T04:45:36.560Z,14.95
2018-07-01T04:48:05.645Z,14.97
2018-07-01T04:50:35.548Z,15.16
2018-07-01T04:53:04.673Z,15.15
2018-07-01T04:55:33.794Z,15.21
2018-07-01T04:58:02.857Z,15.16
2018-07-01T05:00:31.949Z,15.26
2018-07-01T05:03:01.312Z,15.22
2018-07-01T05:05:30.440Z,15.24
2018-07-01T05:07:59.912Z,15.22
2018-07-01T05:10:29.021Z,15.43
2018-07-01T05:12:58.320Z,15.67
2018-07-01T05:15:27.504Z,15.79
2018-07-01T05:17:56.631Z,15.84
2018-07-01T05:20:25.794Z,16.01
2018-07-01T05:22:54.925Z,16.12
2018-07-01T05:25:24.133Z,16.18
2018-07-01T05:27:53.388Z,16.36
2018-07-01T05:30:22.541Z,16.62
2018-07-01T05:32:52.508Z,16.64
2018-07-01T05:35:22.007Z,16.63
2018-07-01T05:37:51.056Z,16.76
2018-07-01T05:40:20.223Z,16.92
2018-07-01T05:42:50.068Z,16.86
2018-07-01T05:45:19.368Z,16.99
2018-07-01T05:47:48.465Z,17.04
2018-07-01T05:50:17.560Z,17.21
2018-07-01T05:52:46.852Z,17.40
2018-07-01T05:55:15.956Z,17.47
2018-07-01T05:57:45.412Z,17.48
2018-07-01T06:00:14.583Z,17.57
2018-07-01T06:02:44.417Z,17.89
2018-07-01T06:05:13.540Z,17.97
2018-07-01T06:07:42.632Z,17.90
2018-07-01T06:10:12.028Z,17.96
2018-07-01T06:12:41.156Z,18.24
2018-07-01T06:15:10.356Z,18.14
2018-07-01T06:17:39.716Z,18.15
2018-07-01T06:20:09.493Z,18.36
2018-07-01T06:22:38.725Z,18.72
2018-07-01T06:25:08.172Z,18.88
2018-07-01T06:27:37.392Z,18.92
2018-07-01T06:30:08.576Z,18.97
2018-07-01T06:32:37.884Z,19.12
2018-07-01T06:35:07.904Z,19.60
2018-07-01T06:37:37.030Z,20.10
2018-07-01T06:40:07.989Z,19.69
2018-07-01T06:42:37.647Z,19.15
2018-07-01T06:45:07.564Z,19.20
2018-07-01T06:47:36.879Z,19.32
2018-07-01T06:50:06.185Z,19.28
2018-07-01T06:52:37.345Z,19.16
2018-07-01T06:55:06.477Z,19.38
2018-07-01T06:57:36.473Z,19.75
2018-07-01T07:00:06.129Z,19.96
2018-07-01T07:02:35.378Z,20.29
2018-07-01T07:05:05.761Z,20.39
2018-07-01T07:07:34.889Z,20.43
2018-07-01T07:10:04.174Z,20.37
2018-07-01T07:12:33.752Z,20.51
2018-07-01T07:15:03.681Z,20.76
2018-07-01T07:17:32.792Z,21.06
2018-07-01T07:20:02.631Z,20.49
2018-07-01T07:22:31.680Z,20.50
2018-07-01T07:25:00.804Z,20.62
2018-07-01T07:27:30.033Z,21.00
2018-07-01T07:29:59.121Z,20.43
2018-07-01T07:32:28.328Z,21.00
2018-07-01T07:34:57.704Z,21.64
2018-07-01T07:37:27.473Z,22.61
2018-07-01T07:39:56.621Z,23.71
2018-07-01T07:42:25.740Z,23.18
2018-07-01T07:44:55.213Z,23.04
2018-07-01T07:47:24.321Z,23.47
2018-07-01T07:49:53.725Z,23.06
2018-07-01T07:52:23.314Z,24.24
2018-07-01T07:54:52.296Z,23.46
2018-07-01T07:57:21.472Z,24.48
2018-07-01T07:59:51.501Z,25.57
2018-07-01T08:02:20.649Z,25.18
2018-07-01T08:04:49.796Z,25.62
2018-07-01T08:07:19.243Z,26.12
2018-07-01T08:09:49.800Z,26.04
2018-07-01T08:12:19.604Z,26.16
2018-07-01T08:14:48.680Z,24.19
2018-07-01T08:17:18.785Z,24.62
2018-07-01T08:19:47.889Z,24.92
2018-07-01T08:22:17.165Z,26.10
2018-07-01T08:24:46.348Z,25.78
2018-07-01T08:27:16.089Z,27.92
2018-07-01T08:29:47.324Z,27.91
2018-07-01T08:32:16.433Z,27.34
2018-07-01T08:34:46.112Z,26.71
2018-07-01T08:37:15.504Z,25.25
2018-07-01T08:39:44.652Z,24.16
2018-07-01T08:42:23.802Z,25.20
2018-07-01T08:44:53.761Z,26.19
2018-07-01T08:47:22.845Z,26.67
2018-07-01T08:49:52.014Z,28.46
2018-07-01T08:52:21.165Z,30.06
2018-07-01T08:54:50.236Z,29.20
2018-07-01T08:57:20.279Z,29.81
2018-07-01T08:59:49.799Z,30.19
2018-07-01T09:02:20.309Z,29.99
2018-07-01T09:04:49.408Z,27.79
2018-07-01T09:07:18.989Z,26.44
2018-07-01T09:09:48.609Z,27.83
2018-07-01T09:12:17.747Z,27.39
2018-07-01T09:14:47.537Z,28.51
2018-07-01T09:17:17.416Z,29.16
2018-07-01T09:19:46.492Z,27.42
2018-07-01T09:22:15.634Z,27.12
2018-07-01T09:24:44.957Z,27.45
2018-07-01T09:27:15.552Z,28.18
2018-07-01T09:29:51.734Z,28.57
2018-07-01T09:32:20.816Z,30.15
2018-07-01T09:34:50.612Z,31.61
2018-07-01T09:37:19.712Z,30.92
2018-07-01T09:39:48.829Z,27.95
2018-07-01T09:42:18.423Z,29.62
2018-07-01T09:44:47.529Z,30.57
2018-07-01T09:47:16.636Z,29.60
2018-07-01T09:49:46.024Z,31.38
2018-07-01T09:52:15.135Z,29.11
2018-07-01T09:54:44.205Z,28.33
2018-07-01T09:57:13.321Z,27.83
2018-07-01T09:59:43.270Z,29.73
2018-07-01T10:02:13.206Z,27.64
2018-07-01T10:04:42.945Z,28.94
2018-07-01T10:07:12.044Z,28.42
2018-07-01T10:09:41.157Z,28.55
2018-07-01T10:12:10.233Z,29.91
2018-07-01T10:14:40.093Z,27.61
2018-07-01T10:17:09.140Z,29.28
2018-07-01T10:19:38.236Z,30.56
2018-07-01T10:22:07.773Z,30.48
2018-07-01T10:24:37.363Z,30.30
2018-07-01T10:27:07.512Z,31.20
2018-07-01T10:29:37.400Z,32.03
2018-07-01T10:32:06.480Z,30.40
2018-07-01T10:34:36.292Z,30.73
2018-07-01T10:37:06.037Z,30.95
2018-07-01T10:39:35.161Z,30.96
2018-07-01T10:42:06.061Z,30.10
2018-07-01T10:44:35.946Z,30.39
2018-07-01T10:47:05.314Z,29.88
2018-07-01T10:49:34.657Z,31.18
2018-07-01T10:52:03.779Z,30.29
2018-07-01T10:54:32.949Z,29.33
2018-07-01T10:57:02.260Z,30.82
2018-07-01T10:59:31.384Z,29.93
2018-07-01T11:02:01.359Z,30.86
2018-07-01T11:04:30.504Z,32.23
2018-07-01T11:06:59.609Z,30.81
2018-07-01T11:09:30.669Z,31.58
2018-07-01T11:11:59.744Z,31.64
2018-07-01T11:14:29.562Z,31.36
2018-07-01T11:16:58.648Z,30.05
2018-07-01T11:19:28.282Z,31.75
2018-07-01T11:21:57.586Z,32.12
2018-07-01T11:24:26.761Z,33.67
2018-07-01T11:26:56.055Z,33.14
2018-07-01T11:29:25.306Z,32.21
2018-07-01T11:31:54.411Z,32.26
2018-07-01T11:34:23.473Z,32.20
2018-07-01T11:36:53.825Z,29.82
2018-07-01T11:39:22.985Z,29.88
2018-07-01T11:41:52.174Z,30.64
2018-07-01T11:44:21.519Z,31.35
2018-07-01T11:46:50.661Z,31.48
2018-07-01T11:49:19.781Z,31.86
2018-07-01T11:51:49.016Z,31.98
2018-07-01T11:54:18.055Z,30.98
2018-07-01T11:56:47.145Z,31.10
2018-07-01T11:59:16.461Z,32.15
2018-07-01T12:01:45.758Z,31.73
2018-07-01T12:04:15.021Z,31.90
2018-07-01T12:06:44.148Z,31.36
2018-07-01T12:09:13.822Z,30.37
2018-07-01T12:11:42.943Z,31.07
2018-07-01T12:14:12.056Z,30.81
2018-07-01T12:16:41.536Z,30.88
2018-07-01T12:19:11.685Z,30.66
2018-07-01T12:21:42.165Z,29.64
2018-07-01T12:24:11.276Z,30.42
2018-07-01T12:26:40.455Z,30.75
2018-07-01T12:29:10.533Z,30.18
2018-07-01T12:31:39.772Z,31.88
2018-07-01T12:34:08.955Z,30.97
2018-07-01T12:36:38.337Z,30.51
2018-07-01T12:39:10.912Z,30.46
2018-07-01T12:41:40.537Z,29.45
2018-07-01T12:44:09.673Z,29.63
2018-07-01T12:46:38.812Z,31.68
2018-07-01T12:49:08.150Z,32.19
2018-07-01T12:51:37.378Z,31.77
2018-07-01T12:54:06.557Z,32.19
2018-07-01T12:56:36.869Z,33.20
2018-07-01T12:59:05.914Z,31.57
2018-07-01T13:01:35.633Z,30.46
2018-07-01T13:04:05.601Z,30.44
2018-07-01T13:06:34.746Z,30.55
2018-07-01T13:09:06.086Z,31.75
2018-07-01T13:11:35.235Z,32.28
2018-07-01T13:14:05.565Z,32.82
2018-07-01T13:16:34.672Z,33.21
2018-07-01T13:19:04.273Z,30.85
2018-07-01T13:21:34.541Z,31.14
2018-07-01T13:24:03.721Z,32.09
2018-07-01T13:26:32.840Z,31.51
2018-07-01T13:29:02.393Z,31.64
2018-07-01T13:31:31.500Z,31.69
2018-07-01T13:34:00.637Z,31.42
2018-07-01T13:36:30.304Z,32.09
2018-07-01T13:38:59.493Z,32.52
2018-07-01T13:41:29.902Z,33.99
2018-07-01T13:44:00.045Z,31.81
2018-07-01T13:46:29.320Z,32.94
2018-07-01T13:49:00.335Z,31.36
2018-07-01T13:51:29.785Z,32.70
2018-07-01T13:53:59.836Z,31.34
2018-07-01T13:56:29.238Z,32.01
2018-07-01T13:58:58.817Z,32.35
2018-07-01T14:01:27.952Z,31.70
2018-07-01T14:03:57.051Z,31.91
2018-07-01T14:06:26.515Z,30.80
2018-07-01T14:08:55.533Z,31.03
2018-07-01T14:11:24.660Z,31.10
2018-07-01T14:13:53.805Z,32.25
2018-07-01T14:19:22.025Z,31.44
2018-07-01T14:21:51.273Z,30.18
2018-07-01T14:24:21.361Z,30.51
2018-07-01T14:26:50.723Z,30.46
2018-07-01T14:29:19.788Z,31.62
2018-07-01T14:31:48.852Z,31.33
2018-07-01T14:34:18.471Z,31.97
2018-07-01T14:36:47.549Z,32.50
2018-07-01T14:39:16.829Z,30.99
2018-07-01T14:41:46.420Z,30.27
2018-07-01T14:44:15.541Z,30.50
2018-07-01T14:46:45.433Z,31.54
2018-07-01T14:49:14.574Z,31.64
2018-07-01T14:51:44.407Z,32.68
2018-07-01T14:54:13.479Z,32.69
2018-07-01T14:56:42.556Z,32.55
2018-07-01T14:59:12.264Z,31.45
2018-07-01T15:01:41.361Z,31.37
2018-07-01T15:04:10.508Z,30.67
2018-07-01T15:06:39.896Z,29.68
2018-07-01T15:09:10.823Z,29.21
2018-07-01T15:11:40.773Z,29.84
2018-07-01T15:14:10.096Z,30.29
2018-07-01T15:16:39.213Z,29.10
2018-07-01T15:19:08.568Z,29.58
2018-07-01T15:21:37.835Z,30.25
2018-07-01T15:24:08.681Z,30.21
2018-07-01T15:26:37.771Z,29.59
2018-07-01T15:29:07.026Z,29.37
2018-07-01T15:31:36.173Z,29.15
2018-07-01T15:34:05.376Z,29.19
2018-07-01T15:36:34.589Z,28.60
2018-07-01T15:39:04.248Z,27.70
2018-07-01T15:41:33.344Z,27.87
2018-07-01T15:44:02.624Z,27.98
2018-07-01T15:46:31.815Z,27.40
2018-07-01T15:49:00.969Z,27.46
2018-07-01T15:51:30.548Z,27.33
2018-07-01T15:53:59.705Z,27.31
2018-07-01T15:56:28.823Z,27.58
2018-07-01T15:58:58.190Z,27.58
2018-07-01T16:01:27.577Z,27.09
2018-07-01T16:03:56.660Z,27.24
2018-07-01T16:06:26.105Z,27.37
2018-07-01T16:08:55.244Z,27.50
2018-07-01T16:11:24.622Z,27.62
2018-07-01T16:13:53.936Z,27.19
2018-07-01T16:16:24.074Z,27.23
2018-07-01T16:18:53.218Z,27.52
2018-07-01T16:21:22.369Z,26.87
2018-07-01T16:23:51.740Z,26.70
2018-07-01T16:26:26.161Z,26.66
2018-07-01T16:29:00.304Z,26.86
2018-07-01T16:31:31.685Z,26.78
2018-07-01T16:34:00.824Z,26.67
2018-07-01T16:36:30.972Z,26.59
2018-07-01T16:39:01.317Z,26.52
2018-07-01T16:41:30.545Z,26.67
2018-07-01T16:43:59.896Z,26.58
2018-07-01T16:46:28.988Z,26.42
2018-07-01T16:48:58.117Z,26.50
2018-07-01T16:51:27.564Z,26.51
2018-07-01T16:53:56.733Z,26.55
2018-07-01T16:56:27.109Z,26.51
2018-07-01T16:58:56.416Z,26.63
2018-07-01T17:01:25.508Z,26.66
2018-07-01T17:03:54.761Z,26.34
2018-07-01T17:06:24.528Z,26.20
2018-07-01T17:08:53.636Z,26.37
2018-07-01T17:11:22.761Z,26.33
2018-07-01T17:13:51.902Z,26.18
2018-07-01T17:16:21.932Z,26.24
2018-07-01T17:18:51.053Z,26.30
2018-07-01T17:21:20.173Z,26.24
2018-07-01T17:23:49.501Z,26.18
2018-07-01T17:26:18.916Z,26.18
2018-07-01T17:28:48.125Z,25.96
2018-07-01T17:31:22.444Z,26.06
2018-07-01T17:33:51.576Z,26.06
2018-07-01T17:36:20.781Z,26.10
2018-07-01T17:38:50.436Z,26.00
2018-07-01T17:41:20.157Z,25.98
2018-07-01T17:43:49.268Z,25.76
2018-07-01T17:46:19.155Z,25.79
2018-07-01T17:48:48.208Z,25.71
2018-07-01T17:51:17.488Z,25.73
2018-07-01T17:53:54.895Z,25.64
2018-07-01T17:56:24.868Z,25.54
2018-07-01T17:58:55.649Z,25.60
2018-07-01T18:01:25.677Z,25.49
2018-07-01T18:03:54.848Z,25.42
2018-07-01T18:06:24.148Z,25.38
2018-07-01T18:08:53.271Z,25.42
2018-07-01T18:11:22.398Z,25.51
2018-07-01T18:13:51.529Z,25.35
2018-07-01T18:16:20.917Z,25.33
2018-07-01T18:18:50.121Z,25.35
2018-07-01T18:21:20.813Z,25.36
2018-07-01T18:24:19.489Z,25.30
2018-07-01T18:26:17.860Z,25.19
2018-07-01T18:28:59.157Z,25.27
2018-07-01T18:31:16.484Z,25.09
2018-07-01T18:33:45.615Z,25.09
2018-07-01T18:36:14.710Z,24.97
2018-07-01T18:38:43.879Z,24.87
2018-07-01T18:41:13.029Z,24.90
2018-07-01T18:43:42.225Z,24.80
2018-07-01T18:46:11.517Z,24.64
2018-07-01T18:48:41.033Z,24.68
2018-07-01T18:51:10.204Z,24.64
2018-07-01T18:53:39.377Z,24.58
2018-07-01T18:56:08.625Z,24.47
2018-07-01T18:58:38.514Z,24.41
2018-07-01T19:01:08.608Z,24.30
2018-07-01T19:03:37.729Z,24.23
2018-07-01T19:06:07.161Z,24.16
2018-07-01T19:08:36.616Z,24.15
2018-07-01T19:11:05.816Z,23.99
2018-07-01T19:13:34.950Z,23.93
2018-07-01T19:16:04.545Z,23.82
2018-07-01T19:18:33.949Z,23.72
2018-07-01T19:21:06.768Z,23.56
2018-07-01T19:23:35.938Z,23.47
2018-07-01T19:26:05.752Z,23.33
2018-07-01T19:28:35.425Z,23.17
2018-07-01T19:31:04.535Z,22.98
2018-07-01T19:33:33.641Z,22.83
2018-07-01T19:36:02.791Z,22.59
2018-07-01T19:38:31.856Z,22.42
2018-07-01T19:41:01.029Z,22.24
2018-07-01T19:43:31.139Z,22.11
2018-07-01T19:46:00.057Z,22.05
2018-07-01T19:48:29.773Z,21.89
2018-07-01T19:50:59.404Z,21.73
2018-07-01T19:53:29.506Z,21.58
2018-07-01T19:55:58.825Z,21.47
2018-07-01T19:58:28.156Z,21.35
2018-07-01T20:00:57.920Z,21.23
2018-07-01T20:03:27.094Z,21.09
2018-07-01T20:05:56.276Z,21.00
2018-07-01T20:08:25.978Z,20.89
2018-07-01T20:10:55.593Z,20.81
2018-07-01T20:13:24.928Z,20.63
2018-07-01T20:15:54.713Z,20.54
2018-07-01T20:18:24.516Z,20.44
2018-07-01T20:20:53.671Z,20.35
2018-07-01T20:23:22.713Z,20.20
2018-07-01T20:25:52.121Z,20.07
2018-07-01T20:28:21.254Z,20.01
2018-07-01T20:30:51.849Z,19.94
2018-07-01T20:33:22.254Z,19.87
2018-07-01T20:35:51.356Z,19.75
2018-07-01T20:38:20.492Z,19.62
2018-07-01T20:40:50.528Z,19.56
2018-07-01T20:43:20.593Z,19.52
2018-07-01T20:45:49.709Z,19.48
2018-07-01T20:48:19.045Z,19.47
2018-07-01T20:50:48.105Z,19.39
2018-07-01T20:53:17.260Z,19.33
2018-07-01T20:55:46.622Z,19.23
2018-07-01T20:58:15.780Z,19.20
2018-07-01T21:00:45.432Z,19.14
2018-07-01T21:03:14.917Z,19.09
2018-07-01T21:05:44.219Z,19.08
2018-07-01T21:08:13.561Z,19.04
2018-07-01T21:10:43.945Z,19.02
2018-07-01T21:13:13.096Z,18.97
2018-07-01T21:15:42.236Z,18.86
2018-07-01T21:18:11.984Z,18.84
2018-07-01T21:20:41.148Z,18.77
2018-07-01T21:23:10.220Z,18.67
2018-07-01T21:25:39.446Z,18.58
2018-07-01T21:28:08.536Z,18.57
2018-07-01T21:30:38.453Z,18.52
2018-07-01T21:33:08.030Z,18.46
2018-07-01T21:35:37.184Z,18.38
2018-07-01T21:38:06.272Z,18.31
2018-07-01T21:40:35.591Z,18.28
2018-07-01T21:43:05.027Z,18.25
2018-07-01T21:45:34.288Z,18.17
2018-07-01T21:48:03.580Z,18.09
2018-07-01T21:50:32.696Z,18.06
2018-07-01T21:53:01.828Z,18.06
2018-07-01T21:55:31.571Z,18.02
2018-07-01T21:58:00.680Z,17.96
2018-07-01T22:00:32.792Z,17.94
2018-07-01T22:03:03.612Z,17.91
2018-07-01T22:05:33.204Z,17.86
2018-07-01T22:08:02.540Z,17.82
2018-07-01T22:10:48.796Z,17.81
2018-07-01T22:14:31.200Z,17.74
2018-07-01T22:17:00.807Z,17.61
2018-07-01T22:19:30.029Z,17.57
2018-07-01T22:21:59.704Z,17.50
2018-07-01T22:24:30.263Z,17.40
2018-07-01T22:26:59.464Z,17.39
2018-07-01T22:29:28.553Z,17.34
2018-07-01T22:31:58.019Z,17.27
2018-07-01T22:34:27.422Z,17.19
2018-07-01T22:36:56.664Z,17.08
2018-07-01T22:39:27.131Z,16.98
2018-07-01T22:41:57.131Z,16.96
2018-07-01T22:44:26.172Z,16.91
2018-07-01T22:46:55.440Z,16.79
2018-07-01T22:49:24.593Z,16.70
2018-07-01T22:51:54.276Z,16.68
2018-07-01T22:54:23.617Z,16.53
2018-07-01T22:56:52.682Z,16.42
2018-07-01T22:59:22.413Z,16.39
2018-07-01T23:04:05.033Z,16.30
2018-07-01T23:06:34.133Z,16.22
2018-07-01T23:09:03.321Z,16.24
2018-07-01T23:11:33.661Z,16.21
2018-07-01T23:14:03.118Z,16.25
2018-07-01T23:16:32.276Z,16.31
2018-07-01T23:19:01.621Z,16.33
2018-07-01T23:21:31.652Z,16.29
2018-07-01T23:24:01.290Z,16.26
2018-07-01T23:26:30.407Z,16.26
2018-07-01T23:28:59.569Z,16.16
2018-07-01T23:31:29.592Z,16.10
2018-07-01T23:33:58.672Z,16.07
2018-07-01T23:36:27.906Z,15.97
2018-07-01T23:38:57.408Z,15.98
2018-07-01T23:41:27.492Z,15.88
2018-07-01T23:43:56.617Z,15.85
2018-07-01T23:46:25.996Z,15.80
2018-07-01T23:48:55.426Z,15.78
2018-07-01T23:51:24.581Z,15.65
2018-07-01T23:53:54.124Z,15.63
2018-07-01T23:56:23.199Z,15.61
2018-07-01T23:58:52.277Z,15.62
